Guajillo, Texas
Current Conditions -  °F | °C
As of 2:53 AM on Wednesday 28 Jan 2015 (Local Time) from KALI Reporting Station
Clear Clear  
Wind Chill: 47°   Ceiling: Unl
Heat Index: 49°   Visibility: 10mi
Dew Point: 39°   Wind: 5mph
Humidity: 69%   Direction: 250°WSW
Pressure: 30.13"   Gusts: NA
Location:  27.6821°N, 98.1034°W
Report Text: KALI 280853Z AUTO 25004KT 10SM CLR 09/04 A3013 RMK AO2 SLP201 T00940039 58008
Loading
Personal Weather Stations






























Interactive Weather Map New forecast layout! Learn more

10-Day Weather Forecast

Advertisements
Track Severe Weather on mobile